sensor_id;sensor_type;location;lat;lon;timestamp;pressure;altitude;pressure_sealevel;temperature;humidity
63194;BME280;49289;51.670;5.624;2023-02-16T00:01:37;102549.31;;;13.21;49.79
63194;BME280;49289;51.670;5.624;2023-02-16T00:03:26;102540.83;;;13.33;49.45
63194;BME280;49289;51.670;5.624;2023-02-16T00:05:21;102550.71;;;13.35;49.34
63194;BME280;49289;51.670;5.624;2023-02-16T00:07:07;102564.24;;;13.38;49.68
63194;BME280;49289;51.670;5.624;2023-02-16T00:08:56;102548.70;;;13.24;49.81
63194;BME280;49289;51.670;5.624;2023-02-16T00:10:44;102547.72;;;13.30;49.52
63194;BME280;49289;51.670;5.624;2023-02-16T00:12:32;102548.03;;;13.24;49.67
63194;BME280;49289;51.670;5.624;2023-02-16T00:14:22;102541.27;;;13.04;49.93
63194;BME280;49289;51.670;5.624;2023-02-16T00:16:11;102546.72;;;12.98;50.00
63194;BME280;49289;51.670;5.624;2023-02-16T00:18:00;102542.05;;;13.18;49.74
63194;BME280;49289;51.670;5.624;2023-02-16T00:19:47;102544.36;;;13.21;49.70
63194;BME280;49289;51.670;5.624;2023-02-16T00:21:35;102559.00;;;13.13;50.25
63194;BME280;49289;51.670;5.624;2023-02-16T00:23:21;102561.54;;;13.13;50.06
63194;BME280;49289;51.670;5.624;2023-02-16T00:25:10;102543.58;;;13.16;49.57
63194;BME280;49289;51.670;5.624;2023-02-16T00:26:57;102557.73;;;13.19;49.83
63194;BME280;49289;51.670;5.624;2023-02-16T00:28:44;102556.23;;;13.04;50.40
63194;BME280;49289;51.670;5.624;2023-02-16T00:30:31;102555.95;;;12.73;51.40
63194;BME280;49289;51.670;5.624;2023-02-16T00:32:21;102554.12;;;12.91;50.52
63194;BME280;49289;51.670;5.624;2023-02-16T00:34:14;102555.75;;;12.98;50.41
63194;BME280;49289;51.670;5.624;2023-02-16T00:35:59;102547.55;;;12.61;51.49
63194;BME280;49289;51.670;5.624;2023-02-16T00:37:48;102539.20;;;12.90;50.89
63194;BME280;49289;51.670;5.624;2023-02-16T00:39:35;102557.72;;;13.13;50.55
63194;BME280;49289;51.670;5.624;2023-02-16T00:41:31;102539.58;;;13.05;50.43
63194;BME280;49289;51.670;5.624;2023-02-16T00:43:22;102556.64;;;12.30;52.05
63194;BME280;49289;51.670;5.624;2023-02-16T00:45:08;102556.32;;;12.55;51.91
63194;BME280;49289;51.670;5.624;2023-02-16T00:46:58;102542.81;;;12.36;52.25
63194;BME280;49289;51.670;5.624;2023-02-16T00:48:46;102535.57;;;12.42;52.01
63194;BME280;49289;51.670;5.624;2023-02-16T00:50:33;102541.09;;;12.15;52.83
63194;BME280;49289;51.670;5.624;2023-02-16T00:52:34;102551.73;;;12.51;52.23
63194;BME280;49289;51.670;5.624;2023-02-16T00:54:20;102551.14;;;12.44;51.85
63194;BME280;49289;51.670;5.624;2023-02-16T00:56:09;102537.30;;;12.40;51.96
63194;BME280;49289;51.670;5.624;2023-02-16T00:58:00;102535.05;;;12.34;52.03
63194;BME280;49289;51.670;5.624;2023-02-16T00:59:44;102532.03;;;12.32;52.27
63194;BME280;49289;51.670;5.624;2023-02-16T01:01:32;102542.88;;;12.42;52.21
63194;BME280;49289;51.670;5.624;2023-02-16T01:03:22;102536.01;;;12.41;51.63
63194;BME280;49289;51.670;5.624;2023-02-16T01:05:10;102534.14;;;12.26;52.35
63194;BME280;49289;51.670;5.624;2023-02-16T01:07:00;102551.84;;;12.71;51.50
63194;BME280;49289;51.670;5.624;2023-02-16T01:08:50;102527.53;;;12.60;51.28
63194;BME280;49289;51.670;5.624;2023-02-16T01:10:38;102544.59;;;12.38;52.30
63194;BME280;49289;51.670;5.624;2023-02-16T01:12:26;102522.92;;;12.42;51.74
63194;BME280;49289;51.670;5.624;2023-02-16T01:14:13;102539.09;;;12.42;51.92
63194;BME280;49289;51.670;5.624;2023-02-16T01:16:01;102529.55;;;12.36;52.10
63194;BME280;49289;51.670;5.624;2023-02-16T01:17:51;102518.57;;;12.24;52.13
63194;BME280;49289;51.670;5.624;2023-02-16T01:19:39;102520.85;;;12.59;51.30
63194;BME280;49289;51.670;5.624;2023-02-16T01:21:26;102517.66;;;12.54;51.41
63194;BME280;49289;51.670;5.624;2023-02-16T01:23:16;102518.23;;;11.94;52.88
63194;BME280;49289;51.670;5.624;2023-02-16T01:25:04;102535.92;;;12.57;52.01
63194;BME280;49289;51.670;5.624;2023-02-16T01:26:52;102530.84;;;12.69;51.24
63194;BME280;49289;51.670;5.624;2023-02-16T01:28:40;102524.14;;;12.38;51.98
63194;BME280;49289;51.670;5.624;2023-02-16T01:30:30;102516.28;;;12.27;52.05
63194;BME280;49289;51.670;5.624;2023-02-16T01:32:18;102523.27;;;11.92;52.72
63194;BME280;49289;51.670;5.624;2023-02-16T01:34:06;102521.57;;;12.09;52.63
63194;BME280;49289;51.670;5.624;2023-02-16T01:35:55;102512.43;;;12.63;51.22
63194;BME280;49289;51.670;5.624;2023-02-16T01:37:42;102518.85;;;12.52;51.01
63194;BME280;49289;51.670;5.624;2023-02-16T01:39:29;102530.72;;;12.38;51.89
63194;BME280;49289;51.670;5.624;2023-02-16T01:41:23;102528.01;;;12.47;51.40
63194;BME280;49289;51.670;5.624;2023-02-16T01:43:13;102507.20;;;12.50;51.30
63194;BME280;49289;51.670;5.624;2023-02-16T01:45:01;102507.72;;;12.77;50.58
63194;BME280;49289;51.670;5.624;2023-02-16T01:46:49;102520.22;;;12.90;50.32
63194;BME280;49289;51.670;5.624;2023-02-16T01:48:36;102500.47;;;12.53;50.84
63194;BME280;49289;51.670;5.624;2023-02-16T01:50:29;102493.09;;;12.80;50.31
63194;BME280;49289;51.670;5.624;2023-02-16T01:52:17;102495.32;;;12.91;49.63
63194;BME280;49289;51.670;5.624;2023-02-16T01:54:06;102496.67;;;12.95;49.67
63194;BME280;49289;51.670;5.624;2023-02-16T01:55:54;102479.84;;;12.73;50.01
63194;BME280;49289;51.670;5.624;2023-02-16T01:57:43;102494.23;;;12.70;50.18
63194;BME280;49289;51.670;5.624;2023-02-16T01:59:31;102489.59;;;12.68;50.27
63194;BME280;49289;51.670;5.624;2023-02-16T02:01:44;102473.16;;;12.59;50.43
63194;BME280;49289;51.670;5.624;2023-02-16T02:03:32;102489.59;;;12.60;50.62
63194;BME280;49289;51.670;5.624;2023-02-16T02:05:26;102484.85;;;12.63;50.40
63194;BME280;49289;51.670;5.624;2023-02-16T02:07:16;102481.77;;;12.56;50.61
63194;BME280;49289;51.670;5.624;2023-02-16T02:09:04;102485.22;;;12.57;50.46
63194;BME280;49289;51.670;5.624;2023-02-16T02:10:59;102489.86;;;12.58;50.39
63194;BME280;49289;51.670;5.624;2023-02-16T02:12:48;102505.90;;;12.59;50.76
63194;BME280;49289;51.670;5.624;2023-02-16T02:14:37;102491.55;;;12.35;51.00
63194;BME280;49289;51.670;5.624;2023-02-16T02:16:25;102486.05;;;12.30;51.27
63194;BME280;49289;51.670;5.624;2023-02-16T02:18:14;102486.42;;;12.54;50.69
63194;BME280;49289;51.670;5.624;2023-02-16T02:20:05;102484.66;;;12.46;50.88
63194;BME280;49289;51.670;5.624;2023-02-16T02:22:02;102477.44;;;12.42;50.73
63194;BME280;49289;51.670;5.624;2023-02-16T02:24:00;102477.67;;;12.48;50.53
63194;BME280;49289;51.670;5.624;2023-02-16T02:28:04;102483.17;;;12.43;50.97
63194;BME280;49289;51.670;5.624;2023-02-16T02:32:16;102487.45;;;12.31;51.49
63194;BME280;49289;51.670;5.624;2023-02-16T02:34:07;102486.53;;;12.42;50.99
63194;BME280;49289;51.670;5.624;2023-02-16T02:35:54;102470.77;;;12.40;50.99
63194;BME280;49289;51.670;5.624;2023-02-16T02:37:46;102468.98;;;12.26;51.05
63194;BME280;49289;51.670;5.624;2023-02-16T02:39:38;102474.67;;;12.27;51.36
63194;BME280;49289;51.670;5.624;2023-02-16T02:41:26;102466.92;;;12.35;51.15
63194;BME280;49289;51.670;5.624;2023-02-16T02:43:15;102481.75;;;12.25;51.61
63194;BME280;49289;51.670;5.624;2023-02-16T02:45:05;102479.95;;;12.31;51.15
63194;BME280;49289;51.670;5.624;2023-02-16T02:46:52;102461.09;;;12.34;51.21
63194;BME280;49289;51.670;5.624;2023-02-16T02:48:41;102476.52;;;12.49;50.99
63194;BME280;49289;51.670;5.624;2023-02-16T02:50:42;102462.96;;;12.36;51.14
63194;BME280;49289;51.670;5.624;2023-02-16T02:52:30;102457.48;;;12.43;50.90
63194;BME280;49289;51.670;5.624;2023-02-16T02:54:19;102451.72;;;12.38;50.96
63194;BME280;49289;51.670;5.624;2023-02-16T02:56:05;102465.83;;;12.46;51.08
63194;BME280;49289;51.670;5.624;2023-02-16T02:57:53;102443.42;;;12.42;51.14
63194;BME280;49289;51.670;5.624;2023-02-16T02:59:42;102435.53;;;12.31;51.28
63194;BME280;49289;51.670;5.624;2023-02-16T03:01:30;102436.19;;;12.36;51.08
63194;BME280;49289;51.670;5.624;2023-02-16T03:03:18;102452.41;;;12.49;50.90
63194;BME280;49289;51.670;5.624;2023-02-16T03:05:06;102434.83;;;12.38;50.86
63194;BME280;49289;51.670;5.624;2023-02-16T03:06:54;102441.62;;;12.30;50.91
63194;BME280;49289;51.670;5.624;2023-02-16T03:08:43;102436.72;;;12.25;51.09
63194;BME280;49289;51.670;5.624;2023-02-16T03:10:32;102436.85;;;12.30;50.96
63194;BME280;49289;51.670;5.624;2023-02-16T03:12:19;102432.92;;;12.22;51.06
63194;BME280;49289;51.670;5.624;2023-02-16T03:14:07;102454.05;;;12.33;51.19
63194;BME280;49289;51.670;5.624;2023-02-16T03:15:55;102438.17;;;12.23;51.21
63194;BME280;49289;51.670;5.624;2023-02-16T03:17:43;102455.30;;;12.22;51.37
63194;BME280;49289;51.670;5.624;2023-02-16T03:19:31;102445.19;;;12.17;51.38
63194;BME280;49289;51.670;5.624;2023-02-16T03:21:18;102450.87;;;12.14;51.34
63194;BME280;49289;51.670;5.624;2023-02-16T03:23:05;102456.56;;;12.08;51.43
63194;BME280;49289;51.670;5.624;2023-02-16T03:24:52;102458.77;;;12.08;51.27
63194;BME280;49289;51.670;5.624;2023-02-16T03:26:39;102462.59;;;12.08;51.33
63194;BME280;49289;51.670;5.624;2023-02-16T03:28:29;102436.06;;;11.94;51.34
63194;BME280;49289;51.670;5.624;2023-02-16T03:30:18;102435.19;;;11.91;51.10
63194;BME280;49289;51.670;5.624;2023-02-16T03:32:05;102442.37;;;11.90;51.44
63194;BME280;49289;51.670;5.624;2023-02-16T03:33:52;102438.00;;;11.81;51.67
63194;BME280;49289;51.670;5.624;2023-02-16T03:35:40;102433.89;;;11.79;51.52
63194;BME280;49289;51.670;5.624;2023-02-16T03:37:30;102423.27;;;11.70;51.61
63194;BME280;49289;51.670;5.624;2023-02-16T03:39:18;102437.81;;;11.79;51.45
63194;BME280;49289;51.670;5.624;2023-02-16T03:41:06;102443.67;;;11.77;51.46
63194;BME280;49289;51.670;5.624;2023-02-16T03:43:00;102441.23;;;11.69;51.49
63194;BME280;49289;51.670;5.624;2023-02-16T03:44:47;102443.55;;;11.64;51.65
63194;BME280;49289;51.670;5.624;2023-02-16T03:46:35;102428.00;;;11.53;51.99
63194;BME280;49289;51.670;5.624;2023-02-16T03:48:25;102431.03;;;11.51;52.10
63194;BME280;49289;51.670;5.624;2023-02-16T03:50:14;102427.98;;;11.51;51.89
63194;BME280;49289;51.670;5.624;2023-02-16T03:52:02;102427.97;;;11.52;51.71
63194;BME280;49289;51.670;5.624;2023-02-16T03:53:49;102429.25;;;11.45;52.00
63194;BME280;49289;51.670;5.624;2023-02-16T03:55:37;102438.31;;;11.47;51.92
63194;BME280;49289;51.670;5.624;2023-02-16T03:57:24;102439.33;;;11.47;52.14
63194;BME280;49289;51.670;5.624;2023-02-16T03:59:14;102420.16;;;11.39;52.42
63194;BME280;49289;51.670;5.624;2023-02-16T04:01:02;102409.47;;;11.38;52.47
63194;BME280;49289;51.670;5.624;2023-02-16T04:02:52;102422.67;;;11.46;52.53
63194;BME280;49289;51.670;5.624;2023-02-16T04:04:40;102428.05;;;11.51;52.64
63194;BME280;49289;51.670;5.624;2023-02-16T04:06:28;102425.19;;;11.26;53.29
63194;BME280;49289;51.670;5.624;2023-02-16T04:08:18;102431.22;;;11.54;53.00
63194;BME280;49289;51.670;5.624;2023-02-16T04:10:05;102448.96;;;11.71;52.87
63194;BME280;49289;51.670;5.624;2023-02-16T04:11:54;102428.12;;;11.67;52.58
63194;BME280;49289;51.670;5.624;2023-02-16T04:13:41;102454.39;;;11.95;52.31
63194;BME280;49289;51.670;5.624;2023-02-16T04:15:29;102452.54;;;11.89;52.47
63194;BME280;49289;51.670;5.624;2023-02-16T04:17:15;102440.02;;;11.79;52.37
63194;BME280;49289;51.670;5.624;2023-02-16T04:19:05;102448.31;;;11.86;52.31
63194;BME280;49289;51.670;5.624;2023-02-16T04:20:53;102441.66;;;11.87;52.06
63194;BME280;49289;51.670;5.624;2023-02-16T04:22:40;102454.46;;;12.01;51.98
63194;BME280;49289;51.670;5.624;2023-02-16T04:24:28;102457.14;;;11.84;52.31
63194;BME280;49289;51.670;5.624;2023-02-16T04:26:17;102434.87;;;11.83;52.13
63194;BME280;49289;51.670;5.624;2023-02-16T04:28:05;102431.88;;;11.80;52.20
63194;BME280;49289;51.670;5.624;2023-02-16T04:29:53;102441.61;;;11.81;52.16
63194;BME280;49289;51.670;5.624;2023-02-16T04:31:41;102448.22;;;11.98;52.03
63194;BME280;49289;51.670;5.624;2023-02-16T04:33:32;102450.36;;;11.98;51.93
63194;BME280;49289;51.670;5.624;2023-02-16T04:35:20;102433.80;;;11.70;52.29
63194;BME280;49289;51.670;5.624;2023-02-16T04:37:07;102459.31;;;11.98;52.08
63194;BME280;49289;51.670;5.624;2023-02-16T04:38:56;102443.33;;;11.96;51.96
63194;BME280;49289;51.670;5.624;2023-02-16T04:40:45;102445.73;;;12.01;51.68
63194;BME280;49289;51.670;5.624;2023-02-16T04:42:32;102453.97;;;12.07;51.61
63194;BME280;49289;51.670;5.624;2023-02-16T04:44:20;102452.31;;;12.08;51.64
63194;BME280;49289;51.670;5.624;2023-02-16T04:46:09;102448.73;;;12.13;51.53
63194;BME280;49289;51.670;5.624;2023-02-16T04:47:57;102445.80;;;12.08;51.53
63194;BME280;49289;51.670;5.624;2023-02-16T04:49:47;102438.86;;;12.13;51.44
63194;BME280;49289;51.670;5.624;2023-02-16T04:51:35;102458.48;;;12.24;51.44
63194;BME280;49289;51.670;5.624;2023-02-16T04:53:23;102451.48;;;12.10;51.60
63194;BME280;49289;51.670;5.624;2023-02-16T04:55:11;102465.17;;;11.90;51.93
63194;BME280;49289;51.670;5.624;2023-02-16T04:56:58;102457.52;;;11.95;52.09
63194;BME280;49289;51.670;5.624;2023-02-16T04:58:46;102427.07;;;11.74;52.26
63194;BME280;49289;51.670;5.624;2023-02-16T05:00:33;102427.61;;;11.95;51.92
63194;BME280;49289;51.670;5.624;2023-02-16T05:02:23;102453.59;;;12.05;51.88
63194;BME280;49289;51.670;5.624;2023-02-16T05:04:10;102433.44;;;12.00;52.04
63194;BME280;49289;51.670;5.624;2023-02-16T05:05:59;102431.45;;;11.87;52.27
63194;BME280;49289;51.670;5.624;2023-02-16T05:07:48;102438.26;;;12.03;52.06
63194;BME280;49289;51.670;5.624;2023-02-16T05:09:36;102446.35;;;12.16;52.14
63194;BME280;49289;51.670;5.624;2023-02-16T05:11:24;102430.97;;;12.17;52.02
63194;BME280;49289;51.670;5.624;2023-02-16T05:13:13;102424.55;;;12.06;51.94
63194;BME280;49289;51.670;5.624;2023-02-16T05:15:03;102416.20;;;11.98;52.06
63194;BME280;49289;51.670;5.624;2023-02-16T05:16:51;102429.20;;;12.11;52.03
63194;BME280;49289;51.670;5.624;2023-02-16T05:18:39;102451.55;;;12.28;51.53
63194;BME280;49289;51.670;5.624;2023-02-16T05:20:26;102441.44;;;12.11;51.92
63194;BME280;49289;51.670;5.624;2023-02-16T05:22:16;102430.70;;;12.24;51.72
63194;BME280;49289;51.670;5.624;2023-02-16T05:24:04;102431.23;;;11.79;52.30
63194;BME280;49289;51.670;5.624;2023-02-16T05:25:51;102437.00;;;12.05;52.21
63194;BME280;49289;51.670;5.624;2023-02-16T05:27:40;102433.52;;;11.97;52.33
63194;BME280;49289;51.670;5.624;2023-02-16T05:29:28;102422.09;;;12.11;51.87
63194;BME280;49289;51.670;5.624;2023-02-16T05:31:17;102427.44;;;12.30;51.62
63194;BME280;49289;51.670;5.624;2023-02-16T05:33:05;102428.41;;;12.38;51.34
63194;BME280;49289;51.670;5.624;2023-02-16T05:34:53;102424.36;;;12.36;51.50
63194;BME280;49289;51.670;5.624;2023-02-16T05:36:40;102426.60;;;12.42;51.38
63194;BME280;49289;51.670;5.624;2023-02-16T05:38:27;102435.17;;;12.41;51.58
63194;BME280;49289;51.670;5.624;2023-02-16T05:40:15;102438.01;;;12.40;51.56
63194;BME280;49289;51.670;5.624;2023-02-16T05:42:03;102452.49;;;12.55;51.49
63194;BME280;49289;51.670;5.624;2023-02-16T05:43:50;102445.84;;;12.58;51.38
63194;BME280;49289;51.670;5.624;2023-02-16T05:45:37;102447.52;;;12.59;51.30
63194;BME280;49289;51.670;5.624;2023-02-16T05:47:24;102423.59;;;12.34;51.63
63194;BME280;49289;51.670;5.624;2023-02-16T05:49:14;102430.77;;;12.44;51.48
63194;BME280;49289;51.670;5.624;2023-02-16T05:51:02;102443.87;;;12.53;51.49
63194;BME280;49289;51.670;5.624;2023-02-16T05:52:50;102431.91;;;12.45;51.52
63194;BME280;49289;51.670;5.624;2023-02-16T05:54:38;102415.75;;;12.15;51.96
63194;BME280;49289;51.670;5.624;2023-02-16T05:56:27;102419.83;;;11.83;52.34
63194;BME280;49289;51.670;5.624;2023-02-16T05:58:16;102416.89;;;11.97;52.33
63194;BME280;49289;51.670;5.624;2023-02-16T06:00:04;102426.14;;;12.22;51.97
63194;BME280;49289;51.670;5.624;2023-02-16T06:01:51;102418.77;;;12.41;51.71
63194;BME280;49289;51.670;5.624;2023-02-16T06:03:41;102410.88;;;12.43;51.69
63194;BME280;49289;51.670;5.624;2023-02-16T06:05:29;102424.21;;;12.49;51.78
63194;BME280;49289;51.670;5.624;2023-02-16T06:07:17;102402.83;;;12.37;51.85
63194;BME280;49289;51.670;5.624;2023-02-16T06:09:06;102390.08;;;12.42;51.89
63194;BME280;49289;51.670;5.624;2023-02-16T06:10:54;102395.41;;;12.37;52.00
63194;BME280;49289;51.670;5.624;2023-02-16T06:12:42;102399.85;;;12.43;51.89
63194;BME280;49289;51.670;5.624;2023-02-16T06:14:30;102395.55;;;12.28;52.13
63194;BME280;49289;51.670;5.624;2023-02-16T06:16:18;102418.06;;;12.38;52.32
63194;BME280;49289;51.670;5.624;2023-02-16T06:18:07;102405.24;;;12.44;51.89
63194;BME280;49289;51.670;5.624;2023-02-16T06:19:55;102409.44;;;12.51;51.82
63194;BME280;49289;51.670;5.624;2023-02-16T06:21:45;102416.34;;;12.49;51.86
63194;BME280;49289;51.670;5.624;2023-02-16T06:23:33;102438.92;;;12.30;51.97
63194;BME280;49289;51.670;5.624;2023-02-16T06:25:21;102423.36;;;12.29;52.22
63194;BME280;49289;51.670;5.624;2023-02-16T06:27:11;102421.66;;;12.50;51.83
63194;BME280;49289;51.670;5.624;2023-02-16T06:28:59;102410.86;;;12.64;51.60
63194;BME280;49289;51.670;5.624;2023-02-16T06:30:47;102411.56;;;12.49;52.05
63194;BME280;49289;51.670;5.624;2023-02-16T06:32:35;102424.88;;;12.69;51.73
63194;BME280;49289;51.670;5.624;2023-02-16T06:34:25;102412.81;;;12.54;51.82
63194;BME280;49289;51.670;5.624;2023-02-16T06:36:12;102429.03;;;12.76;51.64
63194;BME280;49289;51.670;5.624;2023-02-16T06:38:00;102430.61;;;12.82;51.48
63194;BME280;49289;51.670;5.624;2023-02-16T06:39:49;102422.31;;;12.77;51.56
63194;BME280;49289;51.670;5.624;2023-02-16T06:41:37;102429.09;;;12.86;51.55
63194;BME280;49289;51.670;5.624;2023-02-16T06:43:24;102432.89;;;12.89;51.47
63194;BME280;49289;51.670;5.624;2023-02-16T06:45:12;102440.98;;;12.93;51.45
63194;BME280;49289;51.670;5.624;2023-02-16T06:47:00;102434.55;;;12.87;51.30
63194;BME280;49289;51.670;5.624;2023-02-16T06:48:47;102448.08;;;12.85;51.51
63194;BME280;49289;51.670;5.624;2023-02-16T06:50:34;102450.72;;;12.92;51.37
63194;BME280;49289;51.670;5.624;2023-02-16T06:52:24;102437.34;;;12.76;51.73
63194;BME280;49289;51.670;5.624;2023-02-16T06:54:12;102436.71;;;12.72;51.85
63194;BME280;49289;51.670;5.624;2023-02-16T06:56:02;102439.05;;;12.69;51.84
63194;BME280;49289;51.670;5.624;2023-02-16T06:57:50;102437.66;;;12.66;52.01
63194;BME280;49289;51.670;5.624;2023-02-16T06:59:38;102427.47;;;12.71;51.73
63194;BME280;49289;51.670;5.624;2023-02-16T07:01:26;102442.53;;;12.79;51.80
63194;BME280;49289;51.670;5.624;2023-02-16T07:03:15;102429.09;;;12.73;51.74
63194;BME280;49289;51.670;5.624;2023-02-16T07:05:03;102429.53;;;12.76;51.74
63194;BME280;49289;51.670;5.624;2023-02-16T07:06:51;102423.27;;;12.72;51.66
63194;BME280;49289;51.670;5.624;2023-02-16T07:08:39;102437.91;;;12.87;51.68
63194;BME280;49289;51.670;5.624;2023-02-16T07:10:29;102428.08;;;12.81;51.53
63194;BME280;49289;51.670;5.624;2023-02-16T07:12:18;102437.56;;;12.97;51.33
63194;BME280;49289;51.670;5.624;2023-02-16T07:14:06;102447.93;;;12.91;51.87
63194;BME280;49289;51.670;5.624;2023-02-16T07:15:54;102438.34;;;12.95;51.46
63194;BME280;49289;51.670;5.624;2023-02-16T07:17:41;102454.56;;;12.98;51.62
63194;BME280;49289;51.670;5.624;2023-02-16T07:19:30;102438.53;;;12.68;51.94
63194;BME280;49289;51.670;5.624;2023-02-16T07:21:18;102439.91;;;12.42;52.51
63194;BME280;49289;51.670;5.624;2023-02-16T07:23:08;102445.70;;;12.37;53.10
63194;BME280;49289;51.670;5.624;2023-02-16T07:24:56;102444.92;;;12.63;52.45
63194;BME280;49289;51.670;5.624;2023-02-16T07:26:46;102450.60;;;12.62;52.61
63194;BME280;49289;51.670;5.624;2023-02-16T07:28:34;102449.66;;;12.73;52.42
63194;BME280;49289;51.670;5.624;2023-02-16T07:30:22;102458.64;;;12.95;52.13
63194;BME280;49289;51.670;5.624;2023-02-16T07:32:09;102451.30;;;12.97;52.11
63194;BME280;49289;51.670;5.624;2023-02-16T07:33:57;102452.75;;;13.09;52.02
63194;BME280;49289;51.670;5.624;2023-02-16T07:35:46;102437.48;;;12.83;52.16
63194;BME280;49289;51.670;5.624;2023-02-16T07:37:33;102451.78;;;12.91;52.04
63194;BME280;49289;51.670;5.624;2023-02-16T07:39:21;102434.02;;;12.91;51.98
63194;BME280;49289;51.670;5.624;2023-02-16T07:41:10;102436.81;;;13.07;51.71
63194;BME280;49289;51.670;5.624;2023-02-16T07:42:57;102448.05;;;13.20;51.74
63194;BME280;49289;51.670;5.624;2023-02-16T07:44:44;102447.17;;;13.32;51.45
63194;BME280;49289;51.670;5.624;2023-02-16T07:46:32;102434.19;;;13.34;51.51
63194;BME280;49289;51.670;5.624;2023-02-16T07:48:21;102431.96;;;13.27;51.52
63194;BME280;49289;51.670;5.624;2023-02-16T07:50:10;102437.41;;;13.45;51.39
63194;BME280;49289;51.670;5.624;2023-02-16T07:51:58;102438.34;;;13.08;52.25
63194;BME280;49289;51.670;5.624;2023-02-16T07:53:46;102448.88;;;13.39;51.56
63194;BME280;49289;51.670;5.624;2023-02-16T07:55:37;102452.00;;;13.12;51.89
63194;BME280;49289;51.670;5.624;2023-02-16T07:57:22;102474.55;;;13.04;52.38
63194;BME280;49289;51.670;5.624;2023-02-16T07:59:10;102459.70;;;12.82;52.75
63194;BME280;49289;51.670;5.624;2023-02-16T08:01:05;102453.59;;;12.72;52.92
63194;BME280;49289;51.670;5.624;2023-02-16T08:02:47;102476.60;;;12.51;53.62
63194;BME280;49289;51.670;5.624;2023-02-16T08:04:34;102477.08;;;12.62;53.63
63194;BME280;49289;51.670;5.624;2023-02-16T08:06:21;102460.24;;;12.76;53.30
63194;BME280;49289;51.670;5.624;2023-02-16T08:08:08;102452.78;;;12.94;52.97
63194;BME280;49289;51.670;5.624;2023-02-16T08:09:56;102445.33;;;13.06;52.40
63194;BME280;49289;51.670;5.624;2023-02-16T08:11:45;102451.81;;;12.76;53.07
63194;BME280;49289;51.670;5.624;2023-02-16T08:13:32;102447.88;;;12.80;53.28
63194;BME280;49289;51.670;5.624;2023-02-16T08:15:21;102449.39;;;13.47;51.87
63194;BME280;49289;51.670;5.624;2023-02-16T08:17:08;102447.88;;;13.75;51.15
63194;BME280;49289;51.670;5.624;2023-02-16T08:18:55;102452.61;;;13.51;51.70
63194;BME280;49289;51.670;5.624;2023-02-16T08:20:42;102470.98;;;13.75;51.49
63194;BME280;49289;51.670;5.624;2023-02-16T08:22:30;102469.12;;;13.34;52.22
63194;BME280;49289;51.670;5.624;2023-02-16T08:24:19;102477.89;;;13.34;52.49
63194;BME280;49289;51.670;5.624;2023-02-16T08:26:12;102464.75;;;13.54;51.81
63194;BME280;49289;51.670;5.624;2023-02-16T08:28:01;102473.76;;;13.83;51.39
63194;BME280;49289;51.670;5.624;2023-02-16T08:29:49;102477.56;;;13.34;51.81
63194;BME280;49289;51.670;5.624;2023-02-16T08:31:36;102485.73;;;13.20;52.76
63194;BME280;49289;51.670;5.624;2023-02-16T08:33:23;102487.22;;;13.03;53.26
63194;BME280;49289;51.670;5.624;2023-02-16T08:35:13;102468.14;;;13.80;51.57
63194;BME280;49289;51.670;5.624;2023-02-16T08:37:03;102480.52;;;13.63;51.79
63194;BME280;49289;51.670;5.624;2023-02-16T08:38:55;102472.89;;;14.02;51.01
63194;BME280;49289;51.670;5.624;2023-02-16T08:40:46;102476.22;;;13.79;51.43
63194;BME280;49289;51.670;5.624;2023-02-16T08:42:32;102492.80;;;14.15;50.96
63194;BME280;49289;51.670;5.624;2023-02-16T08:44:21;102488.72;;;14.22;50.74
63194;BME280;49289;51.670;5.624;2023-02-16T08:46:08;102472.41;;;13.71;51.56
63194;BME280;49289;51.670;5.624;2023-02-16T08:47:55;102491.74;;;13.86;51.52
63194;BME280;49289;51.670;5.624;2023-02-16T08:49:43;102479.09;;;13.87;51.36
63194;BME280;49289;51.670;5.624;2023-02-16T08:51:33;102480.42;;;13.94;51.05
63194;BME280;49289;51.670;5.624;2023-02-16T08:53:21;102480.77;;;14.14;50.81
63194;BME280;49289;51.670;5.624;2023-02-16T08:55:10;102484.48;;;13.68;51.86
63194;BME280;49289;51.670;5.624;2023-02-16T08:56:58;102498.70;;;13.64;52.17
63194;BME280;49289;51.670;5.624;2023-02-16T08:58:48;102488.52;;;13.13;53.02
63194;BME280;49289;51.670;5.624;2023-02-16T09:00:35;102498.08;;;13.50;52.82
63194;BME280;49289;51.670;5.624;2023-02-16T09:02:22;102492.78;;;13.70;52.12
63194;BME280;49289;51.670;5.624;2023-02-16T09:04:09;102499.88;;;13.42;52.52
63194;BME280;49289;51.670;5.624;2023-02-16T09:05:59;102484.98;;;13.62;52.37
63194;BME280;49289;51.670;5.624;2023-02-16T09:07:47;102494.52;;;13.60;52.23
63194;BME280;49289;51.670;5.624;2023-02-16T09:09:36;102489.08;;;13.44;52.61
63194;BME280;49289;51.670;5.624;2023-02-16T09:11:24;102487.63;;;13.33;52.73
63194;BME280;49289;51.670;5.624;2023-02-16T09:13:13;102507.76;;;13.94;51.88
63194;BME280;49289;51.670;5.624;2023-02-16T09:15:01;102510.09;;;14.26;51.02
63194;BME280;49289;51.670;5.624;2023-02-16T09:16:49;102506.77;;;13.86;51.87
63194;BME280;49289;51.670;5.624;2023-02-16T09:18:37;102517.88;;;14.16;51.51
63194;BME280;49289;51.670;5.624;2023-02-16T09:20:26;102497.98;;;14.05;51.26
63194;BME280;49289;51.670;5.624;2023-02-16T09:22:13;102515.30;;;13.75;52.21
63194;BME280;49289;51.670;5.624;2023-02-16T09:24:01;102517.02;;;14.00;51.54
63194;BME280;49289;51.670;5.624;2023-02-16T09:25:48;102507.87;;;13.44;52.41
63194;BME280;49289;51.670;5.624;2023-02-16T09:27:38;102501.56;;;13.73;52.24
63194;BME280;49289;51.670;5.624;2023-02-16T09:29:26;102503.39;;;13.62;52.41
63194;BME280;49289;51.670;5.624;2023-02-16T09:31:20;102514.95;;;13.75;52.64
63194;BME280;49289;51.670;5.624;2023-02-16T09:33:09;102499.05;;;13.59;52.84